Hendron, Kentucky
Current Conditions -  °F | °C
As of 11:53 AM on Thursday 23 Oct 2014 (Local Time) from KPAH Reporting Station
Clear Clear  
Wind Chill: 58°   Ceiling: Unl
Heat Index: 58°   Visibility: 10mi
Dew Point: 44°   Wind: 3mph
Humidity: 60%   Direction: 110°ESE
Pressure: 30.22"   Gusts: NA
Location:  37.0331°N, 88.716°W
Report Text: KPAH 231653Z 11003KT 10SM CLR 14/07 A3022 RMK AO2 SLP235 T01440067
Loading
Personal Weather Stations






























Interactive Weather Map
Tropical Storm Tracking
New forecast layout! Learn more

10-Day Weather Forecast

Advertisements
Track Severe Weather on mobile